Time;durP1;ratioP1;P1;durP2;ratioP2;P2;SDS_P1;SDS_P2;PMS_P1;PMS_P2;Temp;Humidity;BMP_temperature;BMP_pressure;BME280_temperature;BME280_humidity;BME280_pressure;Samples;Min_cycle;Max_cycle;Signal;HPM_P1;HPM_P2
2022/12/17 13:08:20;;;;;;;13.17;8.30;;;;;;;;;;5094972;28;20459;-78
2022/12/17 13:11:13;;;;;;;12.33;8.97;;;;;;;;;;5087352;28;20451;-78
2022/12/17 13:13:54;;;;;;;13.60;10.00;;;;;;;;;;5091849;28;20465;-79
2022/12/17 13:16:44;;;;;;;16.73;9.73;;;;;;;;;;5097975;28;20524;-78
2022/12/17 13:25:46;;;;;;;19.27;9.27;;;;;;;;;;5010649;28;20475;-77
2022/12/17 13:28:29;;;;;;;21.83;8.57;;;;;;;;;;5083947;28;20491;-78
2022/12/17 13:31:05;;;;;;;11.03;7.00;;;;;;;;;;5074000;28;20488;-78
2022/12/17 13:33:37;;;;;;;17.43;8.87;;;;;;;;;;5073307;28;20469;-78
2022/12/17 13:36:11;;;;;;;13.60;8.37;;;;;;;;;;5066169;28;20453;-78
2022/12/17 13:38:47;;;;;;;12.10;9.20;;;;;;;;;;5071656;28;20568;-79
2022/12/17 13:41:16;;;;;;;16.40;8.43;;;;;;;;;;5068597;28;20477;-78
2022/12/17 13:43:48;;;;;;;12.27;9.73;;;;;;;;;;5067732;28;20469;-78
2022/12/17 13:46:22;;;;;;;20.47;9.93;;;;;;;;;;5078581;28;20457;-78
2022/12/17 13:48:57;;;;;;;24.13;11.50;;;;;;;;;;5070687;28;20467;-78
2022/12/17 13:51:26;;;;;;;15.13;9.77;;;;;;;;;;5072554;28;20475;-79
2022/12/17 13:53:56;;;;;;;14.93;8.97;;;;;;;;;;5069928;28;20468;-78
2022/12/17 13:56:24;;;;;;;10.60;7.60;;;;;;;;;;5062720;28;20487;-79
2022/12/17 13:58:54;;;;;;;15.37;9.57;;;;;;;;;;5059849;28;20449;-78
2022/12/17 14:01:28;;;;;;;11.03;8.20;;;;;;;;;;5072426;28;20860;-79
2022/12/17 14:04:03;;;;;;;11.63;7.53;;;;;;;;;;5074151;28;20461;-79
2022/12/17 14:06:38;;;;;;;16.63;8.87;;;;;;;;;;5074501;28;20475;-78
2022/12/17 14:09:18;;;;;;;11.03;7.37;;;;;;;;;;5069134;28;20936;-79
2022/12/17 14:14:40;;;;;;;16.37;9.60;;;;;;;;;;5071685;28;20499;-78
2022/12/17 14:17:17;;;;;;;167.57;62.87;;;;;;;;;;5069413;28;20590;-78
2022/12/17 14:19:58;;;;;;;16.13;8.57;;;;;;;;;;5065956;28;20449;-77
2022/12/17 14:22:34;;;;;;;17.40;11.00;;;;;;;;;;5075803;28;20554;-80
2022/12/17 14:25:04;;;;;;;20.53;12.93;;;;;;;;;;5081346;28;20452;-80
2022/12/17 14:27:36;;;;;;;15.80;8.83;;;;;;;;;;5074531;28;20495;-79
2022/12/17 14:30:18;;;;;;;18.57;10.97;;;;;;;;;;5079605;28;20503;-78
2022/12/17 14:32:47;;;;;;;18.20;12.97;;;;;;;;;;5072775;28;20902;-78
2022/12/17 14:35:23;;;;;;;21.27;11.63;;;;;;;;;;5078494;28;20465;-79
2022/12/17 14:37:51;;;;;;;27.20;16.00;;;;;;;;;;5084737;28;20482;-80
2022/12/17 14:40:19;;;;;;;27.83;12.53;;;;;;;;;;5073422;28;20465;-80
2022/12/17 14:42:47;;;;;;;21.80;13.13;;;;;;;;;;5080230;28;20456;-79
2022/12/17 14:45:24;;;;;;;30.73;13.50;;;;;;;;;;5080792;28;20456;-79
2022/12/17 14:47:58;;;;;;;17.93;12.73;;;;;;;;;;5074923;28;20453;-79
2022/12/17 14:50:28;;;;;;;16.87;12.03;;;;;;;;;;5081626;28;20872;-79
2022/12/17 14:52:57;;;;;;;19.83;12.97;;;;;;;;;;5076946;28;20508;-78
2022/12/17 14:55:29;;;;;;;34.30;16.70;;;;;;;;;;5069135;28;20533;-79
2022/12/17 14:58:08;;;;;;;21.13;13.37;;;;;;;;;;5064687;28;20836;-79
2022/12/17 15:00:38;;;;;;;20.57;11.30;;;;;;;;;;5074550;28;21050;-79
2022/12/17 15:03:07;;;;;;;20.93;11.23;;;;;;;;;;5067894;28;20453;-79
2022/12/17 15:05:38;;;;;;;22.10;12.87;;;;;;;;;;5074008;28;20833;-79
2022/12/17 15:08:21;;;;;;;20.70;12.17;;;;;;;;;;5073818;28;20794;-79
2022/12/17 15:10:49;;;;;;;18.10;11.20;;;;;;;;;;5083531;28;20644;-79
2022/12/17 15:13:19;;;;;;;22.77;12.90;;;;;;;;;;5068831;28;20529;-80
2022/12/17 15:15:47;;;;;;;33.70;16.90;;;;;;;;;;5071254;28;20471;-79
2022/12/17 15:18:17;;;;;;;26.93;16.00;;;;;;;;;;5073933;28;20491;-80
2022/12/17 15:20:48;;;;;;;26.03;15.07;;;;;;;;;;5066370;28;20450;-78
2022/12/17 15:23:20;;;;;;;25.10;14.87;;;;;;;;;;5071485;28;20459;-79
2022/12/17 15:25:48;;;;;;;25.10;13.00;;;;;;;;;;5081070;28;20531;-79
2022/12/17 15:28:16;;;;;;;23.90;13.70;;;;;;;;;;5067951;28;20467;-79
2022/12/17 15:30:44;;;;;;;26.07;12.97;;;;;;;;;;5079983;28;20461;-79
2022/12/17 15:33:18;;;;;;;29.30;15.10;;;;;;;;;;5074404;28;20441;-80
2022/12/17 15:35:50;;;;;;;22.57;13.17;;;;;;;;;;5084311;28;20488;-80
2022/12/17 15:38:17;;;;;;;24.00;15.00;;;;;;;;;;5073486;28;20492;-80
2022/12/17 15:40:45;;;;;;;23.47;13.73;;;;;;;;;;5062176;28;20471;-79
2022/12/17 15:43:12;;;;;;;24.10;14.33;;;;;;;;;;5061626;28;20487;-79
2022/12/17 15:45:41;;;;;;;15.47;10.60;;;;;;;;;;5061754;28;20572;-80
2022/12/17 15:48:08;;;;;;;21.77;12.10;;;;;;;;;;5075562;28;20452;-79
2022/12/17 15:50:36;;;;;;;23.43;13.63;;;;;;;;;;5085582;28;20563;-80
2022/12/17 15:53:06;;;;;;;19.80;12.00;;;;;;;;;;5084199;28;20471;-80
2022/12/17 15:55:34;;;;;;;27.57;15.30;;;;;;;;;;5086960;28;20521;-79
2022/12/17 15:58:01;;;;;;;21.80;13.80;;;;;;;;;;5084910;28;20489;-79
2022/12/17 16:00:29;;;;;;;21.77;13.13;;;;;;;;;;5085259;28;20471;-79
2022/12/17 16:02:57;;;;;;;29.03;15.57;;;;;;;;;;5086288;28;20744;-81
2022/12/17 16:05:24;;;;;;;26.87;15.33;;;;;;;;;;5083532;28;20471;-79
2022/12/17 16:07:52;;;;;;;20.20;12.10;;;;;;;;;;5081828;28;20468;-79
2022/12/17 16:10:21;;;;;;;37.47;19.33;;;;;;;;;;5079643;28;20472;-79
2022/12/17 16:12:49;;;;;;;35.23;17.40;;;;;;;;;;5080760;28;20436;-79
2022/12/17 16:15:16;;;;;;;31.10;15.40;;;;;;;;;;5079195;28;20461;-80
2022/12/17 16:17:44;;;;;;;33.13;17.30;;;;;;;;;;5079077;28;20476;-78
2022/12/17 16:20:12;;;;;;;27.97;14.17;;;;;;;;;;5083439;28;20452;-79
2022/12/17 16:22:40;;;;;;;28.37;15.30;;;;;;;;;;5085858;28;20452;-79
2022/12/17 16:25:08;;;;;;;21.57;14.33;;;;;;;;;;5083624;28;20529;-81
2022/12/17 16:27:37;;;;;;;30.57;15.90;;;;;;;;;;5083222;28;20457;-81
2022/12/17 16:30:06;;;;;;;32.27;17.47;;;;;;;;;;5082424;28;20495;-79
2022/12/17 16:32:33;;;;;;;31.23;19.17;;;;;;;;;;5083123;28;20551;-80
2022/12/17 16:35:01;;;;;;;28.60;20.03;;;;;;;;;;5083625;28;20460;-78
2022/12/17 16:37:29;;;;;;;20.52;12.70;;;;;;;;;;5082548;28;20480;-79
2022/12/17 16:39:56;;;;;;;31.13;16.10;;;;;;;;;;5082750;28;20206;-80
2022/12/17 16:42:24;;;;;;;21.40;13.30;;;;;;;;;;5067898;28;20801;-79
2022/12/17 16:44:53;;;;;;;20.63;14.77;;;;;;;;;;5062714;28;20461;-80
2022/12/17 16:47:21;;;;;;;25.37;15.27;;;;;;;;;;5067450;28;20881;-81
2022/12/17 16:49:51;;;;;;;31.27;16.40;;;;;;;;;;5072307;28;20473;-80
2022/12/17 16:52:18;;;;;;;31.20;18.30;;;;;;;;;;5060967;28;20508;-81
2022/12/17 16:54:47;;;;;;;28.33;13.47;;;;;;;;;;5064640;28;20931;-80
2022/12/17 16:57:14;;;;;;;17.00;12.27;;;;;;;;;;5068529;28;20468;-79
2022/12/17 16:59:42;;;;;;;15.97;11.07;;;;;;;;;;5078369;28;20464;-80
2022/12/17 17:02:13;;;;;;;20.17;12.37;;;;;;;;;;5078208;28;20472;-80
2022/12/17 17:04:41;;;;;;;22.07;13.27;;;;;;;;;;5078753;28;20485;-80
2022/12/17 17:07:09;;;;;;;20.43;13.80;;;;;;;;;;5080310;28;21109;-79
2022/12/17 17:09:36;;;;;;;18.23;12.63;;;;;;;;;;5079254;28;20461;-79
2022/12/17 17:12:07;;;;;;;31.03;18.47;;;;;;;;;;5081147;28;20494;-79
2022/12/17 17:14:35;;;;;;;31.30;17.03;;;;;;;;;;5065361;28;20538;-79
2022/12/17 17:17:02;;;;;;;35.77;14.67;;;;;;;;;;5081620;28;20464;-79
2022/12/17 17:19:31;;;;;;;30.20;15.87;;;;;;;;;;5077795;28;20488;-80
2022/12/17 17:21:59;;;;;;;28.00;14.50;;;;;;;;;;5078529;28;20472;-80
2022/12/17 17:24:28;;;;;;;33.90;17.93;;;;;;;;;;5078302;28;20445;-79
2022/12/17 17:26:56;;;;;;;19.00;12.83;;;;;;;;;;5059652;28;20469;-80
2022/12/17 17:29:24;;;;;;;16.70;12.57;;;;;;;;;;5057483;28;20488;-79
2022/12/17 17:31:53;;;;;;;28.33;16.27;;;;;;;;;;5060359;28;20509;-80
2022/12/17 17:34:21;;;;;;;22.93;14.57;;;;;;;;;;5059007;28;20453;-80
2022/12/17 17:36:51;;;;;;;24.73;15.80;;;;;;;;;;5062693;28;20472;-80
2022/12/17 17:39:18;;;;;;;20.43;13.50;;;;;;;;;;5058563;28;20488;-80
2022/12/17 17:41:46;;;;;;;23.27;12.43;;;;;;;;;;5061087;28;20466;-79
2022/12/17 17:44:14;;;;;;;30.73;13.77;;;;;;;;;;5059171;28;20203;-80
2022/12/17 17:46:42;;;;;;;23.50;13.87;;;;;;;;;;5061443;28;20481;-80
2022/12/17 17:49:10;;;;;;;23.83;13.43;;;;;;;;;;5057524;28;20468;-79
2022/12/17 17:51:40;;;;;;;30.45;14.02;;;;;;;;;;5058717;28;20465;-79
2022/12/17 17:54:09;;;;;;;24.00;16.50;;;;;;;;;;5057246;28;20219;-80
2022/12/17 17:56:37;;;;;;;25.87;17.37;;;;;;;;;;5059391;28;20461;-80
2022/12/17 17:59:06;;;;;;;30.67;16.57;;;;;;;;;;5057673;28;20477;-80
2022/12/17 18:01:35;;;;;;;31.77;13.97;;;;;;;;;;5059329;28;20461;-80
2022/12/17 18:04:04;;;;;;;16.20;10.07;;;;;;;;;;5058259;28;20445;-80
2022/12/17 18:06:32;;;;;;;23.30;13.00;;;;;;;;;;5059296;28;20552;-80
2022/12/17 18:09:02;;;;;;;25.97;13.07;;;;;;;;;;5059379;28;20468;-79
2022/12/17 18:11:32;;;;;;;26.50;14.87;;;;;;;;;;5059385;28;20467;-79
2022/12/17 18:13:59;;;;;;;18.73;13.00;;;;;;;;;;5058648;28;20478;-80
2022/12/17 18:16:28;;;;;;;21.60;11.13;;;;;;;;;;5059000;28;20461;-79
2022/12/17 18:18:56;;;;;;;19.83;11.20;;;;;;;;;;5059049;28;20515;-80
2022/12/17 18:21:24;;;;;;;21.10;13.67;;;;;;;;;;5059559;28;20537;-79
2022/12/17 18:23:56;;;;;;;25.83;16.67;;;;;;;;;;5061576;28;20889;-79
2022/12/17 18:26:25;;;;;;;23.30;15.77;;;;;;;;;;5059218;28;20449;-79
2022/12/17 18:28:54;;;;;;;28.30;11.10;;;;;;;;;;5060886;28;20304;-80
2022/12/17 18:34:08;;;;;;;23.60;13.60;;;;;;;;;;5059426;28;20449;-79
2022/12/17 18:36:44;;;;;;;30.10;14.83;;;;;;;;;;5069844;28;20465;-79
2022/12/17 18:39:16;;;;;;;27.67;13.30;;;;;;;;;;5079764;28;20530;-79
2022/12/17 18:44:31;;;;;;;34.00;14.80;;;;;;;;;;5081725;28;20858;-79
2022/12/17 18:46:59;;;;;;;16.33;12.38;;;;;;;;;;5069678;28;20461;-78
2022/12/17 18:49:26;;;;;;;18.80;12.50;;;;;;;;;;5059681;28;20606;-79
2022/12/17 18:51:55;;;;;;;22.73;12.40;;;;;;;;;;5060079;28;20472;-79
2022/12/17 18:54:26;;;;;;;29.53;16.57;;;;;;;;;;5058593;28;20470;-80
2022/12/17 18:56:56;;;;;;;44.20;17.80;;;;;;;;;;5059478;28;20462;-78
2022/12/17 18:59:25;;;;;;;26.77;15.13;;;;;;;;;;5057887;28;20512;-78
2022/12/17 19:01:55;;;;;;;20.23;12.23;;;;;;;;;;5060814;28;20530;-80
2022/12/17 19:04:23;;;;;;;21.33;16.03;;;;;;;;;;5060176;28;20450;-79
2022/12/17 19:06:52;;;;;;;20.97;13.03;;;;;;;;;;5060789;28;20464;-79
2022/12/17 19:09:20;;;;;;;19.37;11.57;;;;;;;;;;5063306;28;20705;-80
2022/12/17 19:11:48;;;;;;;30.43;16.43;;;;;;;;;;5063511;28;20469;-80
2022/12/17 19:14:17;;;;;;;27.70;15.30;;;;;;;;;;5063479;28;20465;-80
2022/12/17 19:16:44;;;;;;;17.83;11.60;;;;;;;;;;5063621;28;20714;-79
2022/12/17 19:19:14;;;;;;;33.10;15.33;;;;;;;;;;5071352;28;20484;-80
2022/12/17 19:21:46;;;;;;;33.83;17.10;;;;;;;;;;5084321;28;20825;-80
2022/12/17 19:24:15;;;;;;;24.85;15.75;;;;;;;;;;5083792;28;20563;-80
2022/12/17 19:26:43;;;;;;;25.67;14.30;;;;;;;;;;5083471;28;20206;-80
2022/12/17 19:29:11;;;;;;;21.17;14.90;;;;;;;;;;5081754;28;20490;-81
2022/12/17 19:31:39;;;;;;;25.00;14.70;;;;;;;;;;5084404;28;20590;-80
2022/12/17 19:34:07;;;;;;;24.50;13.40;;;;;;;;;;5083874;28;20444;-80
2022/12/17 19:36:37;;;;;;;22.00;13.10;;;;;;;;;;5083284;28;20226;-80
2022/12/17 19:39:06;;;;;;;24.67;14.27;;;;;;;;;;5083517;28;20565;-80
2022/12/17 19:41:35;;;;;;;24.40;14.07;;;;;;;;;;5085973;28;20527;-80
2022/12/17 19:44:03;;;;;;;17.53;10.60;;;;;;;;;;5084007;28;20448;-81
2022/12/17 19:46:32;;;;;;;20.52;13.18;;;;;;;;;;5081680;28;20480;-80
2022/12/17 19:49:00;;;;;;;13.70;9.50;;;;;;;;;;5083834;28;20282;-79
2022/12/17 19:51:28;;;;;;;28.02;15.38;;;;;;;;;;5083148;28;20216;-80
2022/12/17 19:53:57;;;;;;;32.17;16.63;;;;;;;;;;5082004;28;20217;-80
2022/12/17 19:56:26;;;;;;;30.43;16.47;;;;;;;;;;5082784;28;20884;-81
2022/12/17 19:58:53;;;;;;;22.35;12.52;;;;;;;;;;5082080;28;20476;-80
2022/12/17 20:01:23;;;;;;;26.17;13.52;;;;;;;;;;5081985;28;20305;-81
2022/12/17 20:03:51;;;;;;;29.73;11.17;;;;;;;;;;5082673;28;20218;-80
2022/12/17 20:06:20;;;;;;;25.08;13.13;;;;;;;;;;5082323;28;20476;-80
2022/12/17 20:08:47;;;;;;;18.80;11.23;;;;;;;;;;5083396;28;20202;-80
2022/12/17 20:11:35;;;;;;;18.87;13.50;;;;;;;;;;5081612;28;20613;-80
2022/12/17 20:14:04;;;;;;;18.25;11.68;;;;;;;;;;5081550;28;20808;-80
2022/12/17 20:16:36;;;;;;;22.92;11.57;;;;;;;;;;5082274;28;20241;-80
2022/12/17 20:19:06;;;;;;;15.07;11.10;;;;;;;;;;5059945;28;20226;-80
2022/12/17 20:21:34;;;;;;;26.93;12.80;;;;;;;;;;5076126;28;20260;-80
2022/12/17 20:24:02;;;;;;;25.15;14.15;;;;;;;;;;5082747;28;20509;-80
2022/12/17 20:26:32;;;;;;;24.30;12.18;;;;;;;;;;5082374;28;20217;-80
2022/12/17 20:29:00;;;;;;;20.42;14.75;;;;;;;;;;5082140;28;20242;-81
2022/12/17 20:31:27;;;;;;;20.73;13.70;;;;;;;;;;5081303;28;20267;-80
2022/12/17 20:33:55;;;;;;;17.60;10.70;;;;;;;;;;5082578;28;20887;-80
2022/12/17 20:36:23;;;;;;;15.88;8.95;;;;;;;;;;5082480;28;20912;-81
2022/12/17 20:38:51;;;;;;;18.15;12.65;;;;;;;;;;5081218;28;20222;-81
2022/12/17 20:41:22;;;;;;;17.73;11.67;;;;;;;;;;5082923;28;20214;-80
2022/12/17 20:43:52;;;;;;;13.02;9.73;;;;;;;;;;5082993;28;20456;-78
2022/12/17 20:46:20;;;;;;;15.47;11.77;;;;;;;;;;5084399;28;20392;-79
2022/12/17 20:48:48;;;;;;;21.77;10.27;;;;;;;;;;5084128;28;20494;-80
2022/12/17 20:51:20;;;;;;;15.77;9.52;;;;;;;;;;5082224;28;20469;-79
2022/12/17 20:53:49;;;;;;;23.50;10.18;;;;;;;;;;5083964;28;20206;-80
2022/12/17 20:56:21;;;;;;;13.52;9.75;;;;;;;;;;5073825;28;20218;-79
2022/12/17 20:58:53;;;;;;;16.50;9.65;;;;;;;;;;5082269;28;20240;-80
2022/12/17 21:01:26;;;;;;;19.33;12.03;;;;;;;;;;5082411;28;20245;-80
2022/12/17 21:03:56;;;;;;;17.05;11.45;;;;;;;;;;5081592;28;20530;-82
2022/12/17 21:06:29;;;;;;;19.98;10.40;;;;;;;;;;5084560;28;20224;-79
2022/12/17 21:08:57;;;;;;;16.95;8.45;;;;;;;;;;5083966;28;20264;-80
2022/12/17 21:11:26;;;;;;;18.15;11.77;;;;;;;;;;5083599;28;20281;-80
2022/12/17 21:13:54;;;;;;;19.85;12.82;;;;;;;;;;5070653;28;20206;-79
2022/12/17 21:16:23;;;;;;;15.05;10.57;;;;;;;;;;5084118;28;20237;-80
2022/12/17 21:18:53;;;;;;;20.05;12.02;;;;;;;;;;5083166;28;20202;-79
2022/12/17 21:21:22;;;;;;;21.05;12.90;;;;;;;;;;5082774;28;20202;-79
2022/12/17 21:23:50;;;;;;;21.63;11.50;;;;;;;;;;5082305;28;20470;-80
2022/12/17 21:26:19;;;;;;;22.52;11.75;;;;;;;;;;5080626;28;20490;-80
2022/12/17 21:28:47;;;;;;;15.68;10.13;;;;;;;;;;5081526;28;20228;-79
2022/12/17 21:31:19;;;;;;;20.57;11.30;;;;;;;;;;5080318;28;20208;-78
2022/12/17 21:33:46;;;;;;;21.77;12.40;;;;;;;;;;5080959;28;20461;-80
2022/12/17 21:36:16;;;;;;;15.43;10.30;;;;;;;;;;5081011;28;20522;-79
2022/12/17 21:38:44;;;;;;;21.00;12.55;;;;;;;;;;5081688;28;20204;-78
2022/12/17 21:41:13;;;;;;;34.80;13.45;;;;;;;;;;5081696;28;20206;-77
2022/12/17 21:43:41;;;;;;;15.48;8.30;;;;;;;;;;5081536;28;20601;-80
2022/12/17 21:46:11;;;;;;;14.32;8.98;;;;;;;;;;5080471;28;20474;-79
2022/12/17 21:48:39;;;;;;;16.02;8.77;;;;;;;;;;5082213;28;20232;-79
2022/12/17 21:51:08;;;;;;;17.08;10.40;;;;;;;;;;5083363;28;20806;-79
2022/12/17 21:53:40;;;;;;;20.63;10.53;;;;;;;;;;5082583;28;20264;-80
2022/12/17 21:56:10;;;;;;;10.25;7.78;;;;;;;;;;5082833;28;20515;-80
2022/12/17 21:58:40;;;;;;;13.27;7.80;;;;;;;;;;5080086;28;20214;-80
2022/12/17 22:01:13;;;;;;;16.40;10.60;;;;;;;;;;5079511;28;20316;-80
2022/12/17 22:03:41;;;;;;;15.52;10.23;;;;;;;;;;5063732;28;20538;-80
2022/12/17 22:06:09;;;;;;;12.82;8.60;;;;;;;;;;5059331;28;20203;-79
2022/12/17 22:08:39;;;;;;;14.83;9.50;;;;;;;;;;5058997;28;20198;-80
2022/12/17 22:11:10;;;;;;;12.18;8.80;;;;;;;;;;5059788;28;20493;-79
2022/12/17 22:16:23;;;;;;;11.98;9.20;;;;;;;;;;5059310;28;20190;-79
2022/12/17 22:18:51;;;;;;;22.35;9.80;;;;;;;;;;5059537;28;20198;-79
2022/12/17 22:21:19;;;;;;;16.88;9.93;;;;;;;;;;5061094;28;20263;-79
2022/12/17 22:24:01;;;;;;;12.63;7.88;;;;;;;;;;5063882;28;20203;-80
2022/12/17 22:26:34;;;;;;;11.60;8.65;;;;;;;;;;5064426;28;20242;-79
2022/12/17 22:29:02;;;;;;;22.00;11.43;;;;;;;;;;5070532;28;20202;-78
2022/12/17 22:34:15;;;;;;;14.10;10.20;;;;;;;;;;5081377;28;20297;-80
2022/12/17 22:36:43;;;;;;;38.28;9.30;;;;;;;;;;5082021;28;20590;-80
2022/12/17 22:39:14;;;;;;;17.95;9.35;;;;;;;;;;5080356;28;20206;-80
2022/12/17 22:44:30;;;;;;;11.15;6.53;;;;;;;;;;5086410;28;20714;-80
2022/12/17 22:46:58;;;;;;;18.58;10.00;;;;;;;;;;5084195;28;20225;-80
2022/12/17 22:49:25;;;;;;;17.17;9.23;;;;;;;;;;5075302;28;20214;-80
2022/12/17 22:51:53;;;;;;;15.30;9.80;;;;;;;;;;5065687;28;20202;-80
2022/12/17 22:54:24;;;;;;;15.60;7.57;;;;;;;;;;5065109;28;20206;-80
2022/12/17 22:56:52;;;;;;;18.00;9.75;;;;;;;;;;5066029;28;20490;-80
2022/12/17 22:59:20;;;;;;;10.07;8.43;;;;;;;;;;5066047;28;20274;-80
2022/12/17 23:01:47;;;;;;;19.60;12.85;;;;;;;;;;5063849;28;20641;-78
2022/12/17 23:04:16;;;;;;;14.88;8.13;;;;;;;;;;5064717;28;20518;-80
2022/12/17 23:06:45;;;;;;;14.60;8.13;;;;;;;;;;5064059;28;20207;-80
2022/12/17 23:09:12;;;;;;;19.33;10.43;;;;;;;;;;5063420;28;20784;-80
2022/12/17 23:11:42;;;;;;;14.95;6.75;;;;;;;;;;5063594;28;20199;-79
2022/12/17 23:14:09;;;;;;;18.70;10.80;;;;;;;;;;5056378;28;20215;-80
2022/12/17 23:16:38;;;;;;;19.23;12.02;;;;;;;;;;5064677;28;20631;-79
2022/12/17 23:19:06;;;;;;;20.52;11.43;;;;;;;;;;5066419;28;20203;-78
2022/12/17 23:21:34;;;;;;;17.58;8.15;;;;;;;;;;5063164;28;20253;-80
2022/12/17 23:24:02;;;;;;;11.57;8.07;;;;;;;;;;5064646;28;20213;-80
2022/12/17 23:26:31;;;;;;;14.45;7.22;;;;;;;;;;5064096;28;20246;-81
2022/12/17 23:29:01;;;;;;;19.35;11.60;;;;;;;;;;5064890;28;20502;-81
2022/12/17 23:31:29;;;;;;;16.10;8.48;;;;;;;;;;5063311;28;20273;-81
2022/12/17 23:33:59;;;;;;;16.63;9.73;;;;;;;;;;5065392;28;20221;-78
2022/12/17 23:36:27;;;;;;;14.13;8.20;;;;;;;;;;5066786;28;20583;-78
2022/12/17 23:38:56;;;;;;;16.80;7.00;;;;;;;;;;5063548;28;20307;-80
2022/12/17 23:41:35;;;;;;;16.30;8.35;;;;;;;;;;5064229;28;20235;-79
2022/12/17 23:44:04;;;;;;;20.10;9.60;;;;;;;;;;5063878;28;20644;-78
2022/12/17 23:46:34;;;;;;;8.57;6.32;;;;;;;;;;5063977;28;20518;-80
2022/12/17 23:49:04;;;;;;;11.48;6.47;;;;;;;;;;5063930;28;20207;-80
2022/12/17 23:51:33;;;;;;;11.15;6.78;;;;;;;;;;5063381;28;20211;-80
2022/12/17 23:54:00;;;;;;;12.63;7.40;;;;;;;;;;5062579;28;20277;-80
2022/12/17 23:56:28;;;;;;;9.98;6.53;;;;;;;;;;5062566;28;20207;-80
2022/12/17 23:58:59;;;;;;;12.10;7.20;;;;;;;;;;5063823;28;20215;-80
